createdAt,value
2023-04-13T00:02:06.656Z,80.83
2023-04-13T00:04:37.304Z,80.61
2023-04-13T00:07:07.140Z,80.31
2023-04-13T00:09:37.716Z,80.55
2023-04-13T00:12:11.170Z,80.23
2023-04-13T00:14:40.694Z,80.35
2023-04-13T00:17:10.278Z,79.88
2023-04-13T00:19:41.585Z,79.28
2023-04-13T00:22:11.185Z,77.47
2023-04-13T00:24:44.205Z,77.67
2023-04-13T00:27:16.407Z,77.92
2023-04-13T00:29:45.927Z,78.03
2023-04-13T00:32:15.458Z,78.46
2023-04-13T00:34:45.007Z,77.78
2023-04-13T00:37:14.862Z,78.07
2023-04-13T00:39:46.328Z,77.75
2023-04-13T00:42:21.842Z,78.31
2023-04-13T00:44:51.349Z,77.70
2023-04-13T00:47:28.180Z,77.25
2023-04-13T00:49:58.428Z,77.64
2023-04-13T00:52:29.158Z,77.93
2023-04-13T00:55:02.992Z,77.98
2023-04-13T00:57:36.728Z,78.92
2023-04-13T01:00:09.575Z,78.98
2023-04-13T01:02:42.718Z,79.34
2023-04-13T01:05:15.737Z,79.93
2023-04-13T01:07:57.064Z,80.24
2023-04-13T01:10:31.152Z,80.36
2023-04-13T01:13:13.093Z,81.20
2023-04-13T01:15:52.499Z,81.72
2023-04-13T01:18:23.973Z,82.09
2023-04-13T01:20:55.929Z,82.93
2023-04-13T01:23:38.926Z,83.45
2023-04-13T01:26:09.833Z,84.21
2023-04-13T01:28:42.750Z,84.87
2023-04-13T01:31:14.266Z,85.67
2023-04-13T01:33:45.504Z,86.73
2023-04-13T01:36:15.721Z,87.10
2023-04-13T01:38:46.213Z,87.22
2023-04-13T01:41:15.783Z,87.26
2023-04-13T01:43:48.178Z,87.27
2023-04-13T01:46:18.345Z,87.44
2023-04-13T01:48:50.721Z,87.86
2023-04-13T01:51:23.133Z,87.82
2023-04-13T01:54:00.421Z,88.17
2023-04-13T01:56:31.749Z,88.37
2023-04-13T01:59:06.801Z,89.17
2023-04-13T02:01:36.856Z,89.45
2023-04-13T02:04:07.952Z,89.69
2023-04-13T02:06:37.649Z,89.20
2023-04-13T02:09:07.312Z,88.93
2023-04-13T02:11:38.218Z,88.96
2023-04-13T02:14:10.473Z,89.00
2023-04-13T02:16:40.008Z,89.22
2023-04-13T02:19:09.670Z,89.20
2023-04-13T02:21:39.203Z,89.48
2023-04-13T02:24:09.776Z,89.78
2023-04-13T02:26:40.858Z,89.93
2023-04-13T02:29:12.972Z,89.72
2023-04-13T02:31:45.712Z,89.73
2023-04-13T02:34:15.301Z,90.17
2023-04-13T02:36:46.602Z,90.56
2023-04-13T02:39:16.204Z,90.31
2023-04-13T02:41:45.713Z,90.47
2023-04-13T02:44:17.839Z,90.76
2023-04-13T02:46:47.369Z,90.99
2023-04-13T02:49:17.061Z,90.99
2023-04-13T02:51:47.167Z,90.52
2023-04-13T02:54:16.967Z,90.97
2023-04-13T02:56:46.532Z,91.09
2023-04-13T02:59:19.204Z,90.70
2023-04-13T03:01:48.861Z,91.50
2023-04-13T03:04:18.512Z,92.22
2023-04-13T03:06:49.297Z,92.62
2023-04-13T03:09:19.080Z,93.01
2023-04-13T03:11:48.707Z,93.09
2023-04-13T03:14:23.818Z,93.52
2023-04-13T03:16:54.823Z,95.44
2023-04-13T03:19:24.509Z,96.33
2023-04-13T03:21:54.243Z,97.82
2023-04-13T03:24:23.800Z,98.92
2023-04-13T03:26:55.314Z,98.61
2023-04-13T03:29:27.683Z,98.82
2023-04-13T03:31:57.319Z,99.11
2023-04-13T03:34:26.962Z,99.26
2023-04-13T03:36:56.667Z,100.00
2023-04-13T03:39:26.265Z,100.00
2023-04-13T03:41:56.242Z,100.00
2023-04-13T03:44:28.493Z,100.00
2023-04-13T03:46:58.137Z,100.00
2023-04-13T03:49:27.745Z,100.00
2023-04-13T03:51:57.251Z,100.00
2023-04-13T03:54:26.739Z,100.00
2023-04-13T03:56:58.158Z,100.00
2023-04-13T03:59:30.442Z,100.00
2023-04-13T04:01:59.982Z,100.00
2023-04-13T04:04:29.559Z,100.00
2023-04-13T04:06:59.520Z,100.00
2023-04-13T04:09:29.862Z,100.00
2023-04-13T04:11:59.381Z,100.00
2023-04-13T04:14:31.988Z,100.00
2023-04-13T04:17:01.542Z,100.00
2023-04-13T04:19:31.078Z,100.00
2023-04-13T04:22:04.356Z,100.00
2023-04-13T04:24:33.963Z,100.00
2023-04-13T04:27:05.879Z,100.00
2023-04-13T04:29:38.362Z,100.00
2023-04-13T04:32:11.250Z,100.00
2023-04-13T04:34:41.366Z,100.00
2023-04-13T04:37:20.344Z,100.00
2023-04-13T04:39:50.533Z,100.00
2023-04-13T04:42:21.049Z,100.00
2023-04-13T04:44:53.171Z,100.00
2023-04-13T04:47:24.708Z,100.00
2023-04-13T04:49:58.017Z,100.00
2023-04-13T04:52:28.035Z,100.00
2023-04-13T04:54:57.627Z,100.00
2023-04-13T04:57:29.566Z,100.00
2023-04-13T05:00:02.405Z,100.00
2023-04-13T05:02:32.300Z,100.00
2023-04-13T05:05:02.106Z,100.00
2023-04-13T05:07:31.926Z,100.00
2023-04-13T05:10:01.629Z,100.00
2023-04-13T05:12:31.173Z,100.00
2023-04-13T05:15:03.484Z,100.00
2023-04-13T05:17:33.166Z,100.00
2023-04-13T05:20:03.767Z,100.00
2023-04-13T05:22:33.464Z,100.00
2023-04-13T05:25:03.026Z,100.00
2023-04-13T05:27:32.583Z,100.00
2023-04-13T05:30:05.548Z,100.00
2023-04-13T05:32:37.345Z,100.00
2023-04-13T05:35:08.071Z,100.00
2023-04-13T05:37:40.167Z,100.00
2023-04-13T05:40:13.816Z,100.00
2023-04-13T05:42:45.374Z,100.00
2023-04-13T05:45:17.553Z,100.00
2023-04-13T05:47:47.727Z,100.00
2023-04-13T05:50:17.255Z,100.00
2023-04-13T05:52:47.410Z,100.00
2023-04-13T05:55:17.081Z,100.00
2023-04-13T05:57:46.604Z,100.00
2023-04-13T06:00:21.543Z,100.00
2023-04-13T06:02:51.719Z,100.00
2023-04-13T06:05:22.516Z,100.00
2023-04-13T06:07:52.121Z,100.00
2023-04-13T06:10:21.785Z,100.00
2023-04-13T06:12:52.697Z,100.00
2023-04-13T06:15:24.911Z,100.00
2023-04-13T06:17:55.258Z,100.00
2023-04-13T06:20:24.972Z,100.00
2023-04-13T06:22:54.530Z,100.00
2023-04-13T06:25:24.079Z,100.00
2023-04-13T06:27:53.857Z,100.00
2023-04-13T06:30:25.988Z,100.00
2023-04-13T06:32:55.582Z,100.00
2023-04-13T06:35:25.286Z,100.00
2023-04-13T06:37:54.818Z,100.00
2023-04-13T06:40:25.849Z,100.00
2023-04-13T06:42:55.404Z,100.00
2023-04-13T06:45:27.579Z,100.00
2023-04-13T06:47:57.263Z,96.29
2023-04-13T06:50:26.901Z,94.59
2023-04-13T06:52:56.424Z,93.94
2023-04-13T06:55:26.286Z,93.84
2023-04-13T06:57:56.018Z,92.95
2023-04-13T07:00:31.846Z,92.21
2023-04-13T07:03:02.155Z,92.35
2023-04-13T07:05:32.052Z,90.77
2023-04-13T07:08:01.683Z,88.84
2023-04-13T07:10:31.291Z,87.99
2023-04-13T07:13:00.838Z,85.85
2023-04-13T07:15:33.123Z,84.49
2023-04-13T07:18:02.765Z,87.09
2023-04-13T07:20:32.446Z,85.16
2023-04-13T07:23:02.502Z,83.71
2023-04-13T07:25:32.072Z,83.79
2023-04-13T07:28:01.590Z,82.22
2023-04-13T07:30:33.784Z,84.89
2023-04-13T07:33:03.500Z,82.13
2023-04-13T07:35:33.084Z,81.65
2023-04-13T07:38:02.593Z,81.67
2023-04-13T07:40:32.185Z,80.61
2023-04-13T07:43:01.832Z,82.81
2023-04-13T07:45:34.923Z,83.21
2023-04-13T07:48:06.077Z,81.84
2023-04-13T07:50:35.699Z,80.58
2023-04-13T07:53:05.219Z,80.18
2023-04-13T07:55:34.759Z,78.50
2023-04-13T07:58:04.274Z,78.60
2023-04-13T08:00:36.561Z,78.97
2023-04-13T08:03:06.544Z,77.93
2023-04-13T08:05:38.374Z,77.95
2023-04-13T08:08:08.530Z,77.03
2023-04-13T08:10:38.336Z,76.59
2023-04-13T08:13:07.992Z,77.91
2023-04-13T08:15:40.120Z,80.23
2023-04-13T08:18:09.687Z,80.04
2023-04-13T08:20:39.431Z,81.53
2023-04-13T08:23:10.674Z,80.44
2023-04-13T08:25:42.541Z,78.69
2023-04-13T08:28:13.313Z,78.47
2023-04-13T08:30:46.016Z,78.44
2023-04-13T08:33:15.549Z,79.44
2023-04-13T08:35:45.085Z,79.40
2023-04-13T08:38:14.796Z,79.90
2023-04-13T08:40:44.360Z,80.43
2023-04-13T08:43:14.499Z,80.33
2023-04-13T08:45:47.025Z,80.91
2023-04-13T08:48:19.500Z,81.00
2023-04-13T08:50:49.187Z,84.27
2023-04-13T08:53:19.862Z,86.03
2023-04-13T08:55:51.436Z,87.33
2023-04-13T08:58:24.596Z,86.44
2023-04-13T09:00:57.761Z,87.76
2023-04-13T09:03:29.037Z,89.94
2023-04-13T09:06:05.021Z,89.60
2023-04-13T09:08:36.788Z,89.48
2023-04-13T09:11:06.630Z,87.30
2023-04-13T09:13:36.261Z,88.30
2023-04-13T09:16:09.565Z,88.22
2023-04-13T09:18:39.149Z,87.20
2023-04-13T09:21:10.147Z,87.13
2023-04-13T09:23:39.770Z,88.46
2023-04-13T09:26:10.368Z,92.54
2023-04-13T09:28:50.044Z,92.27
2023-04-13T09:31:22.233Z,92.34
2023-04-13T09:33:53.715Z,92.50
2023-04-13T09:36:24.596Z,93.46
2023-04-13T09:38:55.379Z,91.72
2023-04-13T09:41:35.370Z,97.54
2023-04-13T09:44:06.798Z,95.68
2023-04-13T09:46:39.525Z,93.89
2023-04-13T09:49:09.375Z,93.28
2023-04-13T09:51:40.152Z,93.43
2023-04-13T09:54:10.019Z,93.90
2023-04-13T09:56:47.580Z,92.96
2023-04-13T09:59:17.751Z,92.27
2023-04-13T10:01:51.345Z,92.53
2023-04-13T10:04:21.099Z,93.66
2023-04-13T10:06:52.531Z,94.78
2023-04-13T10:09:22.110Z,93.50
2023-04-13T10:11:53.790Z,94.13
2023-04-13T10:14:28.721Z,95.57
2023-04-13T10:17:14.636Z,95.19
2023-04-13T10:19:48.662Z,95.04
2023-04-13T10:22:20.386Z,96.06
2023-04-13T10:24:50.165Z,94.35
2023-04-13T10:27:22.199Z,96.49
2023-04-13T10:29:52.438Z,96.12
2023-04-13T10:32:29.040Z,96.17
2023-04-13T10:34:58.810Z,96.75
2023-04-13T10:37:31.127Z,98.71
2023-04-13T10:40:14.101Z,100.00
2023-04-13T10:42:52.463Z,100.00
2023-04-13T10:45:26.247Z,100.00
2023-04-13T10:47:58.839Z,99.04
2023-04-13T10:50:29.924Z,99.87
2023-04-13T10:53:00.988Z,100.00
2023-04-13T10:55:30.911Z,100.00
2023-04-13T10:58:01.959Z,100.00
2023-04-13T11:00:45.697Z,100.00
2023-04-13T11:03:19.431Z,100.00
2023-04-13T11:05:50.010Z,100.00
2023-04-13T11:08:21.862Z,100.00
2023-04-13T11:10:55.316Z,100.00
2023-04-13T11:13:25.605Z,100.00
2023-04-13T11:16:03.024Z,100.00
2023-04-13T11:18:35.352Z,100.00
2023-04-13T11:21:08.613Z,100.00
2023-04-13T11:23:38.567Z,100.00
2023-04-13T11:26:08.569Z,100.00
2023-04-13T11:28:43.908Z,100.00
2023-04-13T11:31:13.969Z,100.00
2023-04-13T11:33:46.335Z,100.00
2023-04-13T11:36:15.906Z,100.00
2023-04-13T11:38:46.146Z,100.00
2023-04-13T11:41:17.315Z,100.00
2023-04-13T11:43:49.016Z,100.00
2023-04-13T11:46:25.678Z,100.00
2023-04-13T11:48:58.766Z,100.00
2023-04-13T11:51:29.141Z,100.00
2023-04-13T11:53:58.901Z,100.00
2023-04-13T11:56:28.979Z,100.00
2023-04-13T11:58:59.071Z,100.00
2023-04-13T12:01:34.157Z,100.00
2023-04-13T12:04:15.717Z,100.00
2023-04-13T12:06:48.694Z,100.00
2023-04-13T12:09:22.123Z,100.00
2023-04-13T12:12:11.999Z,100.00
2023-04-13T12:19:57.840Z,100.00
2023-04-13T12:22:49.366Z,100.00
2023-04-13T12:25:24.432Z,100.00
2023-04-13T12:27:55.823Z,100.00
2023-04-13T12:30:26.516Z,100.00
2023-04-13T12:32:58.143Z,100.00
2023-04-13T12:35:30.470Z,100.00
2023-04-13T12:38:00.455Z,100.00
2023-04-13T12:40:29.996Z,100.00
2023-04-13T12:42:59.537Z,100.00
2023-04-13T12:45:31.135Z,99.82
2023-04-13T12:48:00.912Z,97.20
2023-04-13T12:50:33.672Z,97.46
2023-04-13T12:53:03.353Z,97.18
2023-04-13T12:55:33.003Z,97.43
2023-04-13T12:58:02.563Z,96.22
2023-04-13T13:00:32.103Z,93.39
2023-04-13T13:03:12.910Z,94.33
2023-04-13T13:05:46.266Z,94.99
2023-04-13T13:08:15.879Z,92.92
2023-04-13T13:10:45.578Z,92.78
2023-04-13T13:13:17.419Z,90.47
2023-04-13T13:15:47.323Z,88.56
2023-04-13T13:18:16.882Z,90.81
2023-04-13T13:20:49.525Z,90.90
2023-04-13T13:23:19.770Z,91.75
2023-04-13T13:26:04.446Z,95.69
2023-04-13T13:28:40.028Z,91.11
2023-04-13T13:31:10.020Z,90.15
2023-04-13T13:33:39.543Z,87.22
2023-04-13T13:36:14.206Z,89.46
2023-04-13T13:38:44.317Z,88.62
2023-04-13T13:41:13.865Z,88.01
2023-04-13T13:43:43.394Z,86.10
2023-04-13T13:46:13.695Z,85.61
2023-04-13T13:48:43.241Z,85.03
2023-04-13T13:51:15.421Z,86.13
2023-04-13T13:53:45.017Z,85.29
2023-04-13T13:56:14.552Z,86.72
2023-04-13T13:58:44.087Z,86.40
2023-04-13T14:01:13.754Z,84.07
2023-04-13T14:03:43.419Z,83.72
2023-04-13T14:06:15.830Z,84.74
2023-04-13T14:08:45.391Z,86.61
2023-04-13T14:11:15.077Z,86.61
2023-04-13T14:13:44.588Z,85.97
2023-04-13T14:16:14.210Z,86.59
2023-04-13T14:18:43.866Z,85.66
2023-04-13T14:21:16.140Z,88.55
2023-04-13T14:23:46.028Z,90.71
2023-04-13T14:26:15.602Z,89.17
2023-04-13T14:28:45.246Z,90.34
2023-04-13T14:31:14.875Z,92.25
2023-04-13T14:33:45.550Z,90.75
2023-04-13T14:36:19.465Z,91.52
2023-04-13T14:38:51.706Z,92.32
2023-04-13T14:41:21.229Z,92.92
2023-04-13T14:43:51.166Z,92.60
2023-04-13T14:46:21.649Z,92.72
2023-04-13T14:48:51.293Z,93.87
2023-04-13T14:51:23.400Z,96.08
2023-04-13T14:53:56.506Z,96.79
2023-04-13T14:56:27.010Z,96.92
2023-04-13T14:58:56.603Z,98.47
2023-04-13T15:01:26.548Z,100.00
2023-04-13T15:03:56.618Z,100.00
2023-04-13T15:06:29.144Z,100.00
2023-04-13T15:08:58.985Z,100.00
2023-04-13T15:11:29.023Z,100.00
2023-04-13T15:13:58.553Z,100.00
2023-04-13T15:16:28.326Z,100.00
2023-04-13T15:18:58.403Z,100.00
2023-04-13T15:21:31.921Z,100.00
2023-04-13T15:24:01.456Z,100.00
2023-04-13T15:26:32.739Z,100.00
2023-04-13T15:29:02.514Z,100.00
2023-04-13T15:31:32.292Z,100.00
2023-04-13T15:34:01.887Z,100.00
2023-04-13T15:36:34.093Z,100.00
2023-04-13T15:39:04.709Z,100.00
2023-04-13T15:41:34.302Z,100.00
2023-04-13T15:44:03.900Z,100.00
2023-04-13T15:46:35.019Z,100.00
2023-04-13T15:49:04.664Z,100.00
2023-04-13T15:51:36.817Z,100.00
2023-04-13T15:54:06.551Z,100.00
2023-04-13T15:56:36.584Z,100.00
2023-04-13T15:59:06.193Z,100.00
2023-04-13T16:01:47.289Z,100.00
2023-04-13T16:04:17.429Z,100.00
2023-04-13T16:07:05.041Z,100.00
2023-04-13T16:09:39.379Z,100.00
2023-04-13T16:12:12.292Z,100.00
2023-04-13T16:14:44.878Z,100.00
2023-04-13T16:17:15.221Z,100.00
2023-04-13T16:19:47.479Z,100.00
2023-04-13T16:22:19.675Z,100.00
2023-04-13T16:24:49.670Z,100.00
2023-04-13T16:27:19.276Z,100.00
2023-04-13T16:29:49.158Z,100.00
2023-04-13T16:32:18.850Z,100.00
2023-04-13T16:34:48.491Z,100.00
2023-04-13T16:37:20.572Z,100.00
2023-04-13T16:39:50.074Z,100.00
2023-04-13T16:42:19.692Z,100.00
2023-04-13T16:44:49.256Z,100.00
2023-04-13T16:47:18.793Z,100.00
2023-04-13T16:49:48.343Z,100.00
2023-04-13T16:52:20.481Z,100.00
2023-04-13T16:54:49.993Z,100.00
2023-04-13T16:57:19.523Z,100.00
2023-04-13T16:59:49.058Z,100.00
2023-04-13T17:04:54.782Z,100.00
2023-04-13T17:07:28.339Z,100.00
2023-04-13T17:09:58.193Z,100.00
2023-04-13T17:12:28.007Z,100.00
2023-04-13T17:14:58.428Z,100.00
2023-04-13T17:17:28.242Z,100.00
2023-04-13T17:19:58.085Z,100.00
2023-04-13T17:22:30.257Z,100.00
2023-04-13T17:24:59.816Z,100.00
2023-04-13T17:27:29.360Z,100.00
2023-04-13T17:30:00.576Z,100.00
2023-04-13T17:32:30.232Z,100.00
2023-04-13T17:34:59.811Z,100.00
2023-04-13T17:37:32.233Z,100.00
2023-04-13T17:40:02.854Z,100.00
2023-04-13T17:42:32.506Z,100.00
2023-04-13T17:45:02.035Z,100.00
2023-04-13T17:47:31.608Z,100.00
2023-04-13T17:50:01.399Z,100.00
2023-04-13T17:52:33.526Z,100.00
2023-04-13T17:55:03.076Z,100.00
2023-04-13T17:57:32.740Z,100.00
2023-04-13T18:00:02.296Z,100.00
2023-04-13T18:02:31.990Z,100.00
2023-04-13T18:05:01.804Z,100.00
2023-04-13T18:07:33.960Z,100.00
2023-04-13T18:10:03.517Z,100.00
2023-04-13T18:12:33.060Z,100.00
2023-04-13T18:15:02.847Z,100.00
2023-04-13T18:17:32.428Z,100.00
2023-04-13T18:20:02.093Z,100.00
2023-04-13T18:22:35.091Z,100.00
2023-04-13T18:25:04.654Z,100.00
2023-04-13T18:27:34.775Z,100.00
2023-04-13T18:30:04.592Z,100.00
2023-04-13T18:32:34.171Z,100.00
2023-04-13T18:35:06.403Z,100.00
2023-04-13T18:37:38.642Z,100.00
2023-04-13T18:40:09.790Z,100.00
2023-04-13T18:42:40.922Z,100.00
2023-04-13T18:45:11.730Z,100.00
2023-04-13T18:47:41.302Z,100.00
2023-04-13T18:50:12.193Z,100.00
2023-04-13T18:52:44.302Z,100.00
2023-04-13T18:55:13.955Z,100.00
2023-04-13T18:57:43.520Z,100.00
2023-04-13T19:00:14.240Z,100.00
2023-04-13T19:02:46.716Z,100.00
2023-04-13T19:05:16.970Z,100.00
2023-04-13T19:07:58.819Z,100.00
2023-04-13T19:10:29.160Z,100.00
2023-04-13T19:12:58.902Z,100.00
2023-04-13T19:15:28.899Z,100.00
2023-04-13T19:17:59.442Z,100.00
2023-04-13T19:20:28.953Z,100.00
2023-04-13T19:23:01.187Z,100.00
2023-04-13T19:25:30.779Z,100.00
2023-04-13T19:28:00.365Z,100.00
2023-04-13T19:30:29.984Z,100.00
2023-04-13T19:33:00.957Z,100.00
2023-04-13T19:35:31.303Z,100.00
2023-04-13T19:38:03.635Z,100.00
2023-04-13T19:40:33.293Z,100.00
2023-04-13T19:43:02.803Z,100.00
2023-04-13T19:45:32.467Z,100.00
2023-04-13T19:48:02.181Z,100.00
2023-04-13T19:50:31.956Z,100.00
2023-04-13T19:53:04.126Z,100.00
2023-04-13T19:55:33.644Z,100.00
2023-04-13T19:58:03.178Z,100.00
2023-04-13T20:00:32.812Z,100.00
2023-04-13T20:03:03.571Z,100.00
2023-04-13T20:05:33.343Z,100.00
2023-04-13T20:08:05.575Z,100.00
2023-04-13T20:10:35.692Z,100.00
2023-04-13T20:13:05.214Z,100.00
2023-04-13T20:15:35.324Z,100.00
2023-04-13T20:18:07.360Z,100.00
2023-04-13T20:20:39.560Z,100.00
2023-04-13T20:23:12.415Z,100.00
2023-04-13T20:25:42.024Z,100.00
2023-04-13T20:28:11.734Z,100.00
2023-04-13T20:30:41.686Z,100.00
2023-04-13T20:33:11.276Z,100.00
2023-04-13T20:35:40.938Z,100.00
2023-04-13T20:38:14.125Z,100.00
2023-04-13T20:40:46.046Z,100.00
2023-04-13T20:43:15.990Z,100.00
2023-04-13T20:45:46.317Z,100.00
2023-04-13T20:50:49.507Z,100.00
2023-04-13T20:53:21.653Z,100.00
2023-04-13T20:55:51.708Z,100.00
2023-04-13T20:58:21.220Z,100.00
2023-04-13T21:00:51.218Z,100.00
2023-04-13T21:03:22.273Z,100.00
2023-04-13T21:05:52.882Z,100.00
2023-04-13T21:08:25.117Z,100.00
2023-04-13T21:10:54.695Z,100.00
2023-04-13T21:13:25.050Z,100.00
2023-04-13T21:15:54.579Z,100.00
2023-04-13T21:18:24.114Z,100.00
2023-04-13T21:20:54.041Z,100.00
2023-04-13T21:23:26.313Z,100.00
2023-04-13T21:25:55.994Z,100.00
2023-04-13T21:28:25.565Z,100.00
2023-04-13T21:30:55.097Z,100.00
2023-04-13T21:33:24.666Z,100.00
2023-04-13T21:35:54.200Z,100.00
2023-04-13T21:38:26.352Z,100.00
2023-04-13T21:40:55.856Z,100.00
2023-04-13T21:43:25.400Z,100.00
2023-04-13T21:45:55.498Z,100.00
2023-04-13T21:48:25.079Z,100.00
2023-04-13T21:50:55.211Z,100.00
2023-04-13T21:53:27.387Z,100.00
2023-04-13T21:55:56.978Z,100.00
2023-04-13T21:58:26.716Z,100.00
2023-04-13T22:00:56.581Z,100.00
2023-04-13T22:03:26.369Z,100.00
2023-04-13T22:05:56.030Z,100.00
2023-04-13T22:08:28.141Z,100.00
2023-04-13T22:10:57.694Z,100.00
2023-04-13T22:13:27.393Z,100.00
2023-04-13T22:15:57.253Z,100.00
2023-04-13T22:18:27.753Z,100.00
2023-04-13T22:20:57.407Z,100.00
2023-04-13T22:23:29.596Z,100.00
2023-04-13T22:26:01.804Z,100.00
2023-04-13T22:28:31.609Z,100.00
2023-04-13T22:31:08.088Z,100.00
2023-04-13T22:33:40.495Z,100.00
2023-04-13T22:36:20.023Z,100.00
2023-04-13T22:38:52.902Z,100.00
2023-04-13T22:41:22.451Z,100.00
2023-04-13T22:43:51.982Z,100.00
2023-04-13T22:46:21.644Z,100.00
2023-04-13T22:48:51.491Z,100.00
2023-04-13T22:51:21.089Z,100.00
2023-04-13T22:53:53.258Z,100.00
2023-04-13T22:56:22.805Z,100.00
2023-04-13T22:58:52.324Z,100.00
2023-04-13T23:01:21.851Z,100.00
2023-04-13T23:03:51.732Z,100.00
2023-04-13T23:06:21.395Z,100.00
2023-04-13T23:08:53.686Z,100.00
2023-04-13T23:11:26.196Z,100.00
2023-04-13T23:13:56.801Z,100.00
2023-04-13T23:16:26.697Z,100.00
2023-04-13T23:18:56.299Z,100.00
2023-04-13T23:21:27.807Z,100.00
2023-04-13T23:23:59.960Z,100.00
2023-04-13T23:26:29.597Z,100.00
2023-04-13T23:28:59.478Z,100.00
2023-04-13T23:31:29.189Z,100.00
2023-04-13T23:33:58.770Z,100.00
2023-04-13T23:36:28.371Z,100.00
2023-04-13T23:39:00.740Z,100.00
2023-04-13T23:41:30.424Z,100.00
2023-04-13T23:43:59.956Z,100.00
2023-04-13T23:46:30.429Z,100.00
2023-04-13T23:49:00.091Z,100.00
2023-04-13T23:51:29.808Z,100.00
2023-04-13T23:54:02.274Z,100.00
2023-04-13T23:56:32.004Z,100.00
2023-04-13T23:59:01.947Z,100.00
